createdAt,value
2022-11-13T00:01:57.322Z,12.85
2022-11-13T00:04:43.771Z,12.60
2022-11-13T00:07:32.865Z,12.82
2022-11-13T00:10:19.513Z,12.85
2022-11-13T00:13:06.442Z,12.52
2022-11-13T00:15:58.174Z,12.65
2022-11-13T00:18:45.855Z,11.85
2022-11-13T00:21:32.270Z,12.02
2022-11-13T00:24:21.428Z,11.50
2022-11-13T00:27:08.423Z,12.90
2022-11-13T00:29:55.206Z,13.18
2022-11-13T00:32:42.045Z,11.77
2022-11-13T00:35:28.537Z,11.35
2022-11-13T00:38:15.457Z,11.98
2022-11-13T00:41:03.784Z,12.00
2022-11-13T00:43:50.815Z,11.98
2022-11-13T00:46:38.091Z,12.27
2022-11-13T00:49:24.860Z,11.30
2022-11-13T00:52:11.619Z,12.82
2022-11-13T00:54:58.313Z,12.57
2022-11-13T00:57:46.468Z,12.38
2022-11-13T01:00:33.599Z,12.85
2022-11-13T01:03:20.378Z,12.30
2022-11-13T01:06:15.234Z,12.75
2022-11-13T01:09:01.862Z,13.57
2022-11-13T01:11:48.711Z,13.13
2022-11-13T01:14:37.026Z,13.85
2022-11-13T01:17:23.919Z,14.45
2022-11-13T01:20:12.060Z,13.68
2022-11-13T01:22:58.735Z,14.02
2022-11-13T01:25:45.203Z,13.13
2022-11-13T01:28:31.789Z,13.23
2022-11-13T01:31:22.157Z,13.68
2022-11-13T01:34:08.705Z,13.50
2022-11-13T01:36:55.592Z,13.48
2022-11-13T01:39:42.390Z,13.35
2022-11-13T01:42:29.377Z,12.90
2022-11-13T01:46:03.330Z,13.32
2022-11-13T01:48:56.449Z,12.85
2022-11-13T01:51:48.747Z,12.88
2022-11-13T01:54:38.391Z,12.05
2022-11-13T01:57:25.654Z,12.75
2022-11-13T02:00:37.641Z,12.90
2022-11-13T02:03:24.303Z,12.07
2022-11-13T02:06:12.807Z,12.15
2022-11-13T02:08:59.504Z,12.43
2022-11-13T02:11:46.878Z,12.85
2022-11-13T02:14:34.559Z,12.57
2022-11-13T02:17:27.496Z,12.85
2022-11-13T02:20:17.074Z,11.82
2022-11-13T02:23:15.199Z,13.07
2022-11-13T02:26:04.463Z,12.73
2022-11-13T02:28:51.107Z,12.73
2022-11-13T02:31:38.418Z,12.27
2022-11-13T02:34:25.147Z,11.55
2022-11-13T02:37:12.021Z,11.30
2022-11-13T02:39:58.616Z,11.32
2022-11-13T02:42:46.648Z,12.23
2022-11-13T02:45:33.349Z,11.15
2022-11-13T02:48:20.392Z,11.88
2022-11-13T02:51:07.261Z,11.55
2022-11-13T02:53:53.921Z,11.43
2022-11-13T02:56:40.832Z,11.65
2022-11-13T02:59:29.074Z,11.40
2022-11-13T03:02:15.990Z,10.18
2022-11-13T03:05:12.367Z,11.20
2022-11-13T03:08:00.095Z,11.18
2022-11-13T03:10:47.019Z,11.38
2022-11-13T03:13:33.713Z,11.15
2022-11-13T03:16:21.732Z,11.27
2022-11-13T03:19:08.328Z,11.60
2022-11-13T03:21:54.935Z,11.48
2022-11-13T03:24:42.733Z,10.52
2022-11-13T03:27:30.953Z,11.35
2022-11-13T03:30:17.819Z,9.98
2022-11-13T03:33:05.928Z,10.40
2022-11-13T03:35:53.002Z,10.10
2022-11-13T03:38:40.131Z,10.75
2022-11-13T03:41:26.852Z,9.52
2022-11-13T03:44:13.230Z,9.30
2022-11-13T03:47:00.383Z,9.70
2022-11-13T03:49:48.616Z,8.88
2022-11-13T03:52:35.414Z,9.63
2022-11-13T03:55:22.417Z,9.00
2022-11-13T03:58:09.656Z,9.55
2022-11-13T04:00:57.246Z,9.18
2022-11-13T04:03:44.008Z,8.98
2022-11-13T04:06:32.119Z,8.75
2022-11-13T04:09:19.265Z,9.00
2022-11-13T04:12:06.064Z,8.77
2022-11-13T04:14:53.053Z,9.02
2022-11-13T04:17:39.643Z,8.48
2022-11-13T04:20:27.784Z,7.90
2022-11-13T04:23:17.841Z,7.93
2022-11-13T04:26:04.595Z,8.40
2022-11-13T04:28:51.411Z,8.00
2022-11-13T04:31:38.234Z,7.60
2022-11-13T04:34:24.627Z,7.93
2022-11-13T04:37:11.539Z,7.90
2022-11-13T04:39:59.849Z,7.07
2022-11-13T04:42:48.815Z,7.45
2022-11-13T04:45:36.098Z,7.15
2022-11-13T04:48:22.991Z,7.18
2022-11-13T04:51:09.770Z,7.22
2022-11-13T04:53:56.656Z,7.28
2022-11-13T04:56:44.738Z,6.78
2022-11-13T04:59:31.469Z,6.93
2022-11-13T05:02:18.774Z,6.82
2022-11-13T05:05:10.032Z,6.72
2022-11-13T05:07:56.875Z,7.47
2022-11-13T05:10:44.783Z,7.20
2022-11-13T05:13:34.912Z,6.80
2022-11-13T05:16:21.527Z,7.13
2022-11-13T05:19:08.411Z,7.63
2022-11-13T05:21:55.297Z,7.55
2022-11-13T05:24:42.423Z,7.47
2022-11-13T05:27:29.147Z,8.55
2022-11-13T05:30:18.073Z,7.20
2022-11-13T05:33:04.576Z,8.25
2022-11-13T05:35:51.376Z,7.85
2022-11-13T05:38:38.312Z,7.72
2022-11-13T05:41:25.367Z,7.93
2022-11-13T05:44:12.171Z,7.78
2022-11-13T05:47:00.268Z,7.45
2022-11-13T05:49:47.059Z,8.10
2022-11-13T05:52:33.927Z,8.20
2022-11-13T05:55:23.282Z,7.85
2022-11-13T05:58:11.727Z,8.38
2022-11-13T06:01:10.529Z,8.45
2022-11-13T06:04:00.274Z,8.18
2022-11-13T06:06:46.819Z,7.90
2022-11-13T06:09:33.507Z,8.48
2022-11-13T06:12:20.583Z,8.15
2022-11-13T06:15:08.191Z,8.50
2022-11-13T06:17:55.095Z,8.15
2022-11-13T06:20:43.203Z,8.80
2022-11-13T06:23:29.796Z,8.38
2022-11-13T06:26:19.645Z,8.32
2022-11-13T06:29:07.922Z,8.38
2022-11-13T06:31:54.694Z,8.27
2022-11-13T06:34:41.669Z,8.18
2022-11-13T06:37:33.775Z,8.10
2022-11-13T06:40:21.655Z,9.00
2022-11-13T06:43:08.590Z,8.15
2022-11-13T06:45:57.448Z,8.00
2022-11-13T06:48:44.568Z,7.90
2022-11-13T06:51:32.289Z,8.60
2022-11-13T06:54:20.648Z,8.43
2022-11-13T06:57:07.589Z,7.93
2022-11-13T06:59:54.477Z,8.15
2022-11-13T07:02:41.503Z,8.27
2022-11-13T07:05:28.526Z,8.63
2022-11-13T07:08:16.314Z,8.93
2022-11-13T07:11:04.575Z,8.32
2022-11-13T07:13:52.329Z,8.23
2022-11-13T07:16:56.620Z,7.90
2022-11-13T07:19:45.860Z,8.50
2022-11-13T07:22:32.590Z,8.13
2022-11-13T07:25:19.322Z,8.35
2022-11-13T07:28:07.968Z,7.38
2022-11-13T07:30:54.527Z,8.27
2022-11-13T07:33:41.316Z,7.90
2022-11-13T07:36:27.957Z,8.02
2022-11-13T07:39:14.753Z,7.72
2022-11-13T07:42:01.870Z,7.90
2022-11-13T07:44:57.084Z,7.35
2022-11-13T07:47:43.687Z,7.07
2022-11-13T07:50:32.768Z,7.88
2022-11-13T07:53:20.934Z,8.70
2022-11-13T07:56:08.208Z,8.25
2022-11-13T07:58:55.433Z,8.30
2022-11-13T08:01:43.398Z,8.05
2022-11-13T08:04:31.304Z,8.30
2022-11-13T08:07:18.133Z,7.13
2022-11-13T08:10:06.053Z,7.13
2022-11-13T08:13:01.364Z,6.57
2022-11-13T08:15:48.342Z,7.55
2022-11-13T08:18:36.358Z,7.13
2022-11-13T08:21:23.396Z,7.38
2022-11-13T08:24:10.540Z,7.35
2022-11-13T08:26:57.225Z,6.32
2022-11-13T08:29:43.936Z,7.15
2022-11-13T08:32:30.609Z,6.85
2022-11-13T08:35:20.314Z,7.82
2022-11-13T08:38:10.121Z,6.85
2022-11-13T08:40:58.175Z,7.05
2022-11-13T08:43:44.953Z,6.88
2022-11-13T08:46:31.879Z,7.07
2022-11-13T08:49:18.781Z,6.75
2022-11-13T08:52:07.122Z,7.57
2022-11-13T08:54:54.511Z,7.88
2022-11-13T08:57:41.307Z,7.55
2022-11-13T09:00:29.057Z,7.90
2022-11-13T09:03:15.618Z,7.68
2022-11-13T09:06:02.252Z,8.13
2022-11-13T09:08:50.167Z,7.95
2022-11-13T09:11:36.813Z,7.95
2022-11-13T09:14:24.966Z,7.78
2022-11-13T09:17:12.049Z,7.07
2022-11-13T09:20:03.736Z,7.38
2022-11-13T09:22:57.147Z,7.60
2022-11-13T09:25:45.282Z,6.38
2022-11-13T09:28:32.683Z,7.28
2022-11-13T09:31:19.128Z,6.65
2022-11-13T09:34:05.815Z,8.10
2022-11-13T09:36:52.789Z,6.60
2022-11-13T09:39:40.471Z,6.35
2022-11-13T09:42:30.593Z,6.47
2022-11-13T09:45:18.500Z,6.22
2022-11-13T09:48:18.757Z,6.25
2022-11-13T09:51:11.794Z,5.72
2022-11-13T09:53:59.692Z,6.32
2022-11-13T09:56:52.197Z,7.03
2022-11-13T09:59:46.718Z,6.00
2022-11-13T10:02:46.118Z,6.40
2022-11-13T10:05:40.920Z,5.60
2022-11-13T10:08:31.344Z,5.72
2022-11-13T10:11:26.067Z,5.82
2022-11-13T10:14:18.586Z,5.43
2022-11-13T10:17:19.805Z,5.60
2022-11-13T10:20:13.451Z,5.65
2022-11-13T10:23:09.471Z,5.43
2022-11-13T10:25:58.395Z,5.47
2022-11-13T10:28:52.663Z,5.65
2022-11-13T10:31:44.383Z,5.28
2022-11-13T10:34:34.169Z,5.75
2022-11-13T10:37:44.884Z,5.80
2022-11-13T10:40:34.551Z,5.57
2022-11-13T10:43:24.114Z,5.55
2022-11-13T10:46:20.352Z,6.22
2022-11-13T10:49:17.883Z,5.72
2022-11-13T10:52:17.257Z,5.55
2022-11-13T10:55:18.579Z,6.57
2022-11-13T10:58:12.984Z,5.88
2022-11-13T11:01:00.269Z,4.75
2022-11-13T11:03:50.868Z,5.03
2022-11-13T11:07:17.780Z,5.15
2022-11-13T11:09:49.127Z,5.43
2022-11-13T11:12:36.151Z,4.53
2022-11-13T11:15:27.667Z,4.10
2022-11-13T11:18:25.452Z,3.50
2022-11-13T11:21:17.448Z,3.40
2022-11-13T11:24:10.439Z,3.40
2022-11-13T11:27:04.460Z,3.17
2022-11-13T11:30:00.015Z,2.70
2022-11-13T11:32:51.396Z,2.75
2022-11-13T11:35:44.330Z,2.67
2022-11-13T11:38:37.840Z,2.40
2022-11-13T11:41:37.669Z,2.92
2022-11-13T11:44:30.621Z,2.45
2022-11-13T11:47:19.292Z,2.42
2022-11-13T11:50:12.759Z,2.53
2022-11-13T11:53:06.918Z,2.38
2022-11-13T11:56:05.892Z,2.80
2022-11-13T11:59:25.205Z,3.33
2022-11-13T12:02:52.445Z,3.10
2022-11-13T12:05:48.503Z,3.33
2022-11-13T12:08:46.126Z,3.25
2022-11-13T12:11:35.604Z,3.30
2022-11-13T12:14:34.295Z,2.88
2022-11-13T12:17:39.966Z,3.67
2022-11-13T12:20:36.998Z,2.85
2022-11-13T12:23:34.031Z,3.08
2022-11-13T12:26:27.238Z,3.08
2022-11-13T12:29:33.006Z,2.60
2022-11-13T12:32:32.126Z,2.60
2022-11-13T12:35:21.091Z,2.22
2022-11-13T12:38:19.440Z,2.58
2022-11-13T12:41:16.225Z,2.83
2022-11-13T12:44:20.827Z,2.30
2022-11-13T12:47:09.746Z,2.90
2022-11-13T12:50:01.322Z,2.55
2022-11-13T12:52:59.640Z,2.63
2022-11-13T12:55:59.922Z,2.72
2022-11-13T12:59:28.545Z,2.50
2022-11-13T13:02:32.845Z,3.05
2022-11-13T13:05:36.693Z,3.20
2022-11-13T13:08:58.653Z,3.17
2022-11-13T13:11:56.108Z,3.00
2022-11-13T13:15:03.362Z,2.80
2022-11-13T13:17:50.919Z,3.33
2022-11-13T13:20:39.784Z,3.22
2022-11-13T13:23:33.045Z,3.00
2022-11-13T13:26:23.193Z,3.35
2022-11-13T13:29:20.271Z,3.25
2022-11-13T13:32:20.703Z,3.63
2022-11-13T13:35:16.745Z,3.35
2022-11-13T13:38:15.199Z,3.13
2022-11-13T13:41:14.171Z,3.38
2022-11-13T13:44:22.074Z,3.35
2022-11-13T13:47:17.001Z,3.13
2022-11-13T13:50:07.505Z,3.30
2022-11-13T13:52:56.341Z,2.90
2022-11-13T13:55:48.250Z,3.35
2022-11-13T13:58:37.597Z,2.90
2022-11-13T14:01:31.518Z,2.88
2022-11-13T14:04:21.657Z,3.17
2022-11-13T14:07:22.058Z,2.83
2022-11-13T14:10:16.907Z,3.00
2022-11-13T14:13:04.597Z,3.00
2022-11-13T14:16:01.349Z,3.00
2022-11-13T14:18:49.323Z,3.03
2022-11-13T14:21:36.057Z,2.88
2022-11-13T14:24:25.484Z,3.13
2022-11-13T14:27:24.460Z,2.83
2022-11-13T14:30:24.889Z,2.90
2022-11-13T14:33:16.995Z,2.85
2022-11-13T14:36:06.695Z,2.72
2022-11-13T14:38:54.522Z,3.08
2022-11-13T14:41:47.480Z,2.97
2022-11-13T14:44:36.240Z,3.25
2022-11-13T14:47:26.006Z,2.60
2022-11-13T14:50:24.438Z,3.00
2022-11-13T14:53:12.764Z,2.58
2022-11-13T14:56:02.521Z,3.30
2022-11-13T14:58:49.254Z,3.08
2022-11-13T15:01:36.685Z,3.30
2022-11-13T15:04:24.273Z,3.35
2022-11-13T15:07:29.621Z,3.10
2022-11-13T15:10:20.579Z,3.10
2022-11-13T15:13:12.997Z,3.03
2022-11-13T15:15:59.689Z,3.30
2022-11-13T15:18:49.745Z,3.30
2022-11-13T15:21:36.504Z,3.20
2022-11-13T15:24:23.686Z,3.20
2022-11-13T15:27:15.276Z,3.10
2022-11-13T15:30:02.332Z,3.50
2022-11-13T15:32:54.195Z,3.22
2022-11-13T15:35:43.633Z,3.53
2022-11-13T15:38:30.505Z,3.03
2022-11-13T15:41:20.588Z,3.72
2022-11-13T15:44:14.661Z,3.47
2022-11-13T15:47:01.793Z,3.58
2022-11-13T15:50:09.834Z,3.85
2022-11-13T15:52:57.874Z,3.50
2022-11-13T15:55:46.731Z,4.35
2022-11-13T15:58:34.620Z,4.05
2022-11-13T16:01:23.929Z,3.63
2022-11-13T16:04:13.222Z,3.90
2022-11-13T16:07:00.006Z,4.20
2022-11-13T16:09:48.593Z,3.85
2022-11-13T16:12:35.866Z,3.80
2022-11-13T16:15:23.053Z,3.97
2022-11-13T16:18:22.113Z,4.63
2022-11-13T16:21:11.345Z,4.22
2022-11-13T16:23:58.319Z,4.80
2022-11-13T16:26:49.830Z,5.22
2022-11-13T16:29:36.862Z,5.30
2022-11-13T16:32:24.403Z,5.70
2022-11-13T16:35:15.905Z,5.68
2022-11-13T16:38:03.464Z,5.20
2022-11-13T16:40:50.156Z,5.70
2022-11-13T16:43:37.041Z,5.25
2022-11-13T16:46:29.373Z,4.93
2022-11-13T16:49:19.308Z,5.15
2022-11-13T16:52:07.502Z,5.03
2022-11-13T16:54:54.408Z,4.80
2022-11-13T16:57:41.727Z,5.43
2022-11-13T17:00:28.640Z,6.45
2022-11-13T17:03:15.185Z,6.30
2022-11-13T17:06:02.063Z,6.60
2022-11-13T17:08:52.133Z,6.25
2022-11-13T17:11:38.936Z,6.50
2022-11-13T17:14:26.455Z,6.10
2022-11-13T17:17:14.486Z,6.68
2022-11-13T17:20:01.422Z,7.07
2022-11-13T17:22:49.276Z,7.82
2022-11-13T17:25:37.375Z,8.25
2022-11-13T17:28:24.379Z,7.93
2022-11-13T17:31:13.053Z,6.78
2022-11-13T17:33:59.855Z,7.05
2022-11-13T17:36:46.721Z,6.40
2022-11-13T17:39:33.349Z,6.72
2022-11-13T17:42:21.446Z,7.57
2022-11-13T17:45:09.371Z,7.88
2022-11-13T17:47:55.960Z,7.57
2022-11-13T17:50:43.329Z,8.02
2022-11-13T17:53:31.896Z,8.00
2022-11-13T17:56:20.196Z,8.30
2022-11-13T17:59:10.981Z,8.90
2022-11-13T18:01:57.932Z,7.78
2022-11-13T18:04:44.530Z,8.38
2022-11-13T18:07:31.666Z,8.10
2022-11-13T18:10:19.751Z,8.82
2022-11-13T18:13:07.164Z,8.85
2022-11-13T18:15:55.286Z,9.00
2022-11-13T18:18:42.747Z,8.45
2022-11-13T18:21:32.263Z,8.20
2022-11-13T18:24:20.502Z,8.70
2022-11-13T18:27:08.118Z,9.13
2022-11-13T18:29:55.196Z,8.32
2022-11-13T18:32:43.490Z,7.88
2022-11-13T18:35:30.533Z,8.63
2022-11-13T18:38:17.736Z,8.65
2022-11-13T18:41:06.810Z,9.25
2022-11-13T18:43:54.143Z,9.18
2022-11-13T18:46:41.149Z,8.82
2022-11-13T18:49:29.629Z,8.40
2022-11-13T18:52:16.438Z,8.65
2022-11-13T18:55:03.478Z,8.77
2022-11-13T18:57:51.368Z,9.20
2022-11-13T19:00:40.977Z,8.88
2022-11-13T19:03:27.985Z,8.70
2022-11-13T19:06:18.473Z,9.10
2022-11-13T19:09:07.602Z,9.23
2022-11-13T19:11:55.226Z,8.85
2022-11-13T19:14:42.027Z,9.10
2022-11-13T19:17:29.738Z,9.18
2022-11-13T19:20:18.489Z,8.63
2022-11-13T19:23:09.369Z,9.02
2022-11-13T19:25:56.430Z,9.57
2022-11-13T19:28:43.558Z,10.82
2022-11-13T19:31:31.134Z,12.30
2022-11-13T19:34:18.399Z,12.70
2022-11-13T19:37:05.161Z,12.85
2022-11-13T19:39:53.440Z,12.00
2022-11-13T19:42:41.982Z,12.50
2022-11-13T19:45:29.712Z,11.63
2022-11-13T19:48:29.057Z,12.43
2022-11-13T19:51:17.782Z,12.98
2022-11-13T19:54:04.531Z,12.77
2022-11-13T19:56:52.608Z,12.70
2022-11-13T19:59:40.602Z,13.63
2022-11-13T20:02:27.531Z,12.95
2022-11-13T20:05:14.503Z,13.38
2022-11-13T20:08:01.030Z,13.27
2022-11-13T20:10:48.588Z,13.55
2022-11-13T20:13:37.997Z,12.68
2022-11-13T20:16:25.775Z,13.10
2022-11-13T20:19:12.708Z,12.43
2022-11-13T20:21:59.818Z,12.18
2022-11-13T20:24:46.686Z,11.20
2022-11-13T20:27:36.947Z,12.23
2022-11-13T20:30:25.619Z,12.30
2022-11-13T20:33:12.458Z,12.05
2022-11-13T20:35:59.160Z,11.25
2022-11-13T20:38:50.480Z,12.27
2022-11-13T20:41:36.977Z,11.57
2022-11-13T20:44:23.789Z,11.77
2022-11-13T20:47:12.621Z,11.30
2022-11-13T20:49:59.533Z,11.07
2022-11-13T20:52:46.272Z,10.32
2022-11-13T20:55:33.435Z,10.75
2022-11-13T20:58:20.318Z,11.77
2022-11-13T21:01:09.692Z,11.88
2022-11-13T21:03:59.431Z,11.77
2022-11-13T21:06:47.189Z,10.65
2022-11-13T21:09:33.826Z,11.38
2022-11-13T21:12:20.311Z,10.07
2022-11-13T21:15:08.307Z,10.38
2022-11-13T21:17:55.210Z,10.30
2022-11-13T21:20:43.302Z,10.30
2022-11-13T21:23:30.621Z,9.68
2022-11-13T21:26:17.750Z,8.57
2022-11-13T21:29:04.974Z,7.00
2022-11-13T21:31:51.820Z,6.63
2022-11-13T21:34:38.634Z,5.72
2022-11-13T21:37:28.065Z,5.57
2022-11-13T21:40:15.465Z,5.55
2022-11-13T21:43:01.900Z,5.50
2022-11-13T21:45:48.507Z,5.72
2022-11-13T21:48:36.221Z,5.03
2022-11-13T21:51:23.560Z,5.32
2022-11-13T21:54:11.728Z,5.38
2022-11-13T21:56:58.607Z,5.03
2022-11-13T21:59:47.927Z,5.10
2022-11-13T22:02:34.523Z,5.20
2022-11-13T22:05:21.573Z,4.88
2022-11-13T22:08:08.564Z,5.22
2022-11-13T22:10:56.966Z,5.20
2022-11-13T22:13:44.083Z,5.00
2022-11-13T22:16:33.659Z,4.60
2022-11-13T22:19:25.559Z,4.90
2022-11-13T22:22:14.595Z,4.97
2022-11-13T22:25:01.431Z,5.70
2022-11-13T22:27:49.375Z,5.20
2022-11-13T22:30:36.537Z,6.00
2022-11-13T22:33:23.495Z,6.18
2022-11-13T22:36:12.812Z,5.47
2022-11-13T22:39:00.802Z,6.30
2022-11-13T22:41:47.776Z,5.70
2022-11-13T22:44:54.855Z,6.35
2022-11-13T22:47:42.963Z,5.40
2022-11-13T22:50:29.407Z,5.93
2022-11-13T22:53:16.225Z,6.50
2022-11-13T22:56:04.516Z,6.25
2022-11-13T22:58:51.008Z,6.30
2022-11-13T23:01:40.958Z,6.30
2022-11-13T23:04:27.819Z,6.75
2022-11-13T23:07:14.794Z,6.32
2022-11-13T23:10:19.000Z,6.28
2022-11-13T23:13:05.901Z,6.07
2022-11-13T23:15:52.375Z,6.63
2022-11-13T23:18:41.152Z,6.60
2022-11-13T23:21:29.818Z,7.15
2022-11-13T23:24:16.735Z,6.38
2022-11-13T23:27:03.444Z,6.85
2022-11-13T23:29:50.553Z,6.50
2022-11-13T23:32:38.457Z,6.45
2022-11-13T23:35:27.443Z,6.53
2022-11-13T23:38:14.776Z,5.93
2022-11-13T23:41:02.464Z,6.90
2022-11-13T23:46:55.498Z,6.82
2022-11-13T23:49:42.239Z,7.03
2022-11-13T23:52:30.403Z,8.73
2022-11-13T23:55:18.014Z,9.85
2022-11-13T23:58:07.619Z,12.05
